sensor_id;sensor_type;location;lat;lon;timestamp;P1;durP1;ratioP1;P2;durP2;ratioP2
45618;SDS011;31343;47.520;19.144;2024-02-16T00:00:16;10.90;;;6.60;;
45618;SDS011;31343;47.520;19.144;2024-02-16T00:02:42;8.07;;;5.80;;
45618;SDS011;31343;47.520;19.144;2024-02-16T00:05:09;10.07;;;5.78;;
45618;SDS011;31343;47.520;19.144;2024-02-16T00:07:38;7.65;;;4.45;;
45618;SDS011;31343;47.520;19.144;2024-02-16T00:10:04;9.43;;;5.45;;
45618;SDS011;31343;47.520;19.144;2024-02-16T00:12:31;12.30;;;5.95;;
45618;SDS011;31343;47.520;19.144;2024-02-16T00:14:58;7.10;;;4.53;;
45618;SDS011;31343;47.520;19.144;2024-02-16T00:17:24;8.63;;;6.10;;
45618;SDS011;31343;47.520;19.144;2024-02-16T00:19:52;11.73;;;6.85;;
45618;SDS011;31343;47.520;19.144;2024-02-16T00:22:18;11.20;;;7.63;;
45618;SDS011;31343;47.520;19.144;2024-02-16T00:24:44;9.02;;;5.93;;
45618;SDS011;31343;47.520;19.144;2024-02-16T00:27:10;11.20;;;6.63;;
45618;SDS011;31343;47.520;19.144;2024-02-16T00:29:35;8.75;;;6.22;;
45618;SDS011;31343;47.520;19.144;2024-02-16T00:32:03;9.63;;;5.95;;
45618;SDS011;31343;47.520;19.144;2024-02-16T00:34:31;10.32;;;6.18;;
45618;SDS011;31343;47.520;19.144;2024-02-16T00:36:57;9.52;;;6.82;;
45618;SDS011;31343;47.520;19.144;2024-02-16T00:39:23;8.32;;;5.65;;
45618;SDS011;31343;47.520;19.144;2024-02-16T00:41:50;11.30;;;6.57;;
45618;SDS011;31343;47.520;19.144;2024-02-16T00:44:15;9.30;;;6.07;;
45618;SDS011;31343;47.520;19.144;2024-02-16T00:46:42;10.43;;;6.13;;
45618;SDS011;31343;47.520;19.144;2024-02-16T00:49:08;10.10;;;5.32;;
45618;SDS011;31343;47.520;19.144;2024-02-16T00:51:35;9.45;;;5.38;;
45618;SDS011;31343;47.520;19.144;2024-02-16T00:54:01;9.73;;;6.07;;
45618;SDS011;31343;47.520;19.144;2024-02-16T00:56:28;11.13;;;5.53;;
45618;SDS011;31343;47.520;19.144;2024-02-16T00:58:54;7.75;;;4.85;;
45618;SDS011;31343;47.520;19.144;2024-02-16T01:01:20;8.77;;;4.57;;
45618;SDS011;31343;47.520;19.144;2024-02-16T01:03:47;11.95;;;5.68;;
45618;SDS011;31343;47.520;19.144;2024-02-16T01:06:13;13.20;;;6.68;;
45618;SDS011;31343;47.520;19.144;2024-02-16T01:08:40;8.75;;;4.45;;
45618;SDS011;31343;47.520;19.144;2024-02-16T01:11:06;8.63;;;4.90;;
45618;SDS011;31343;47.520;19.144;2024-02-16T01:13:32;9.50;;;5.25;;
45618;SDS011;31343;47.520;19.144;2024-02-16T01:15:58;9.27;;;5.20;;
45618;SDS011;31343;47.520;19.144;2024-02-16T01:18:24;9.10;;;5.65;;
45618;SDS011;31343;47.520;19.144;2024-02-16T01:20:51;10.10;;;4.45;;
45618;SDS011;31343;47.520;19.144;2024-02-16T01:23:17;12.38;;;6.30;;
45618;SDS011;31343;47.520;19.144;2024-02-16T01:25:42;6.03;;;4.57;;
45618;SDS011;31343;47.520;19.144;2024-02-16T01:28:08;6.35;;;5.00;;
45618;SDS011;31343;47.520;19.144;2024-02-16T01:30:34;11.07;;;6.68;;
45618;SDS011;31343;47.520;19.144;2024-02-16T01:32:59;8.18;;;5.35;;
45618;SDS011;31343;47.520;19.144;2024-02-16T01:35:25;7.32;;;5.78;;
45618;SDS011;31343;47.520;19.144;2024-02-16T01:37:50;5.88;;;4.65;;
45618;SDS011;31343;47.520;19.144;2024-02-16T01:40:16;12.00;;;6.68;;
45618;SDS011;31343;47.520;19.144;2024-02-16T01:42:43;9.07;;;5.05;;
45618;SDS011;31343;47.520;19.144;2024-02-16T01:45:09;9.73;;;6.10;;
45618;SDS011;31343;47.520;19.144;2024-02-16T01:47:39;9.38;;;5.55;;
45618;SDS011;31343;47.520;19.144;2024-02-16T01:50:08;7.80;;;4.25;;
45618;SDS011;31343;47.520;19.144;2024-02-16T01:52:35;10.13;;;4.80;;
45618;SDS011;31343;47.520;19.144;2024-02-16T01:55:04;8.77;;;4.13;;
45618;SDS011;31343;47.520;19.144;2024-02-16T01:57:39;6.35;;;4.07;;
45618;SDS011;31343;47.520;19.144;2024-02-16T02:00:07;7.80;;;4.40;;
45618;SDS011;31343;47.520;19.144;2024-02-16T02:02:36;9.45;;;4.97;;
45618;SDS011;31343;47.520;19.144;2024-02-16T02:05:02;7.00;;;4.63;;
45618;SDS011;31343;47.520;19.144;2024-02-16T02:07:29;8.00;;;5.07;;
45618;SDS011;31343;47.520;19.144;2024-02-16T02:09:54;4.93;;;3.75;;
45618;SDS011;31343;47.520;19.144;2024-02-16T02:12:20;8.63;;;4.88;;
45618;SDS011;31343;47.520;19.144;2024-02-16T02:14:47;10.90;;;5.60;;
45618;SDS011;31343;47.520;19.144;2024-02-16T02:17:17;6.47;;;3.90;;
45618;SDS011;31343;47.520;19.144;2024-02-16T02:19:44;9.40;;;5.22;;
45618;SDS011;31343;47.520;19.144;2024-02-16T02:22:19;7.43;;;5.13;;
45618;SDS011;31343;47.520;19.144;2024-02-16T02:24:45;7.18;;;4.20;;
45618;SDS011;31343;47.520;19.144;2024-02-16T02:27:12;11.52;;;5.57;;
45618;SDS011;31343;47.520;19.144;2024-02-16T02:29:38;11.20;;;5.40;;
45618;SDS011;31343;47.520;19.144;2024-02-16T02:32:05;9.32;;;6.38;;
45618;SDS011;31343;47.520;19.144;2024-02-16T02:34:31;6.45;;;5.05;;
45618;SDS011;31343;47.520;19.144;2024-02-16T02:36:57;7.97;;;3.90;;
45618;SDS011;31343;47.520;19.144;2024-02-16T02:39:23;6.82;;;4.53;;
45618;SDS011;31343;47.520;19.144;2024-02-16T02:41:48;9.38;;;5.40;;
45618;SDS011;31343;47.520;19.144;2024-02-16T02:44:14;8.23;;;5.13;;
45618;SDS011;31343;47.520;19.144;2024-02-16T02:46:39;10.00;;;4.68;;
45618;SDS011;31343;47.520;19.144;2024-02-16T02:49:06;7.25;;;4.72;;
45618;SDS011;31343;47.520;19.144;2024-02-16T02:51:32;7.85;;;5.40;;
45618;SDS011;31343;47.520;19.144;2024-02-16T02:53:57;5.72;;;3.67;;
45618;SDS011;31343;47.520;19.144;2024-02-16T02:56:23;9.35;;;5.22;;
45618;SDS011;31343;47.520;19.144;2024-02-16T02:58:48;8.45;;;4.90;;
45618;SDS011;31343;47.520;19.144;2024-02-16T03:01:14;7.93;;;4.57;;
45618;SDS011;31343;47.520;19.144;2024-02-16T03:03:40;9.55;;;3.75;;
45618;SDS011;31343;47.520;19.144;2024-02-16T03:06:06;5.43;;;4.10;;
45618;SDS011;31343;47.520;19.144;2024-02-16T03:08:32;5.22;;;4.15;;
45618;SDS011;31343;47.520;19.144;2024-02-16T03:10:58;14.38;;;4.55;;
45618;SDS011;31343;47.520;19.144;2024-02-16T03:13:29;5.10;;;4.30;;
45618;SDS011;31343;47.520;19.144;2024-02-16T03:15:54;8.43;;;5.22;;
45618;SDS011;31343;47.520;19.144;2024-02-16T03:18:20;5.63;;;3.78;;
45618;SDS011;31343;47.520;19.144;2024-02-16T03:20:46;6.35;;;4.10;;
45618;SDS011;31343;47.520;19.144;2024-02-16T03:23:14;11.10;;;5.53;;
45618;SDS011;31343;47.520;19.144;2024-02-16T03:25:40;7.22;;;3.88;;
45618;SDS011;31343;47.520;19.144;2024-02-16T03:28:12;7.68;;;4.75;;
45618;SDS011;31343;47.520;19.144;2024-02-16T03:30:38;6.63;;;3.85;;
45618;SDS011;31343;47.520;19.144;2024-02-16T03:33:04;6.07;;;3.80;;
45618;SDS011;31343;47.520;19.144;2024-02-16T03:35:30;9.50;;;4.68;;
45618;SDS011;31343;47.520;19.144;2024-02-16T03:37:56;5.28;;;4.40;;
45618;SDS011;31343;47.520;19.144;2024-02-16T03:40:25;7.78;;;4.90;;
45618;SDS011;31343;47.520;19.144;2024-02-16T03:42:54;8.70;;;4.18;;
45618;SDS011;31343;47.520;19.144;2024-02-16T03:45:20;7.85;;;4.30;;
45618;SDS011;31343;47.520;19.144;2024-02-16T03:47:46;4.65;;;4.00;;
45618;SDS011;31343;47.520;19.144;2024-02-16T03:50:14;8.93;;;6.32;;
45618;SDS011;31343;47.520;19.144;2024-02-16T03:52:40;4.70;;;4.20;;
45618;SDS011;31343;47.520;19.144;2024-02-16T03:55:06;10.73;;;6.25;;
45618;SDS011;31343;47.520;19.144;2024-02-16T03:57:32;8.63;;;4.57;;
45618;SDS011;31343;47.520;19.144;2024-02-16T03:59:58;6.95;;;4.05;;
45618;SDS011;31343;47.520;19.144;2024-02-16T04:02:24;9.43;;;4.25;;
45618;SDS011;31343;47.520;19.144;2024-02-16T04:04:49;6.82;;;4.57;;
45618;SDS011;31343;47.520;19.144;2024-02-16T04:07:16;7.57;;;4.85;;
45618;SDS011;31343;47.520;19.144;2024-02-16T04:09:42;9.13;;;6.53;;
45618;SDS011;31343;47.520;19.144;2024-02-16T04:12:08;6.10;;;4.32;;
45618;SDS011;31343;47.520;19.144;2024-02-16T04:14:34;8.75;;;4.22;;
45618;SDS011;31343;47.520;19.144;2024-02-16T04:17:00;5.05;;;4.55;;
45618;SDS011;31343;47.520;19.144;2024-02-16T04:19:25;7.03;;;4.63;;
45618;SDS011;31343;47.520;19.144;2024-02-16T04:21:51;5.82;;;4.40;;
45618;SDS011;31343;47.520;19.144;2024-02-16T04:24:17;10.20;;;5.30;;
45618;SDS011;31343;47.520;19.144;2024-02-16T04:26:43;10.27;;;5.45;;
45618;SDS011;31343;47.520;19.144;2024-02-16T04:29:09;7.85;;;3.75;;
45618;SDS011;31343;47.520;19.144;2024-02-16T04:31:38;5.68;;;4.28;;
45618;SDS011;31343;47.520;19.144;2024-02-16T04:34:04;8.65;;;4.80;;
45618;SDS011;31343;47.520;19.144;2024-02-16T04:36:30;9.27;;;4.97;;
45618;SDS011;31343;47.520;19.144;2024-02-16T04:38:55;7.43;;;3.95;;
45618;SDS011;31343;47.520;19.144;2024-02-16T04:41:21;6.00;;;4.25;;
45618;SDS011;31343;47.520;19.144;2024-02-16T04:43:47;5.75;;;4.18;;
45618;SDS011;31343;47.520;19.144;2024-02-16T04:46:16;5.40;;;3.42;;
45618;SDS011;31343;47.520;19.144;2024-02-16T04:48:42;7.18;;;5.30;;
45618;SDS011;31343;47.520;19.144;2024-02-16T04:51:08;7.70;;;4.03;;
45618;SDS011;31343;47.520;19.144;2024-02-16T04:53:33;8.40;;;4.47;;
45618;SDS011;31343;47.520;19.144;2024-02-16T04:55:59;6.03;;;3.85;;
45618;SDS011;31343;47.520;19.144;2024-02-16T04:58:27;7.18;;;4.53;;
45618;SDS011;31343;47.520;19.144;2024-02-16T05:00:52;8.88;;;5.43;;
45618;SDS011;31343;47.520;19.144;2024-02-16T05:03:18;7.22;;;4.80;;
45618;SDS011;31343;47.520;19.144;2024-02-16T05:05:44;9.75;;;4.97;;
45618;SDS011;31343;47.520;19.144;2024-02-16T05:08:10;8.75;;;5.00;;
45618;SDS011;31343;47.520;19.144;2024-02-16T05:10:36;6.30;;;3.58;;
45618;SDS011;31343;47.520;19.144;2024-02-16T05:13:02;6.55;;;4.03;;
45618;SDS011;31343;47.520;19.144;2024-02-16T05:15:28;8.07;;;5.60;;
45618;SDS011;31343;47.520;19.144;2024-02-16T05:17:54;8.93;;;4.38;;
45618;SDS011;31343;47.520;19.144;2024-02-16T05:20:19;7.82;;;3.65;;
45618;SDS011;31343;47.520;19.144;2024-02-16T05:22:45;10.85;;;5.47;;
45618;SDS011;31343;47.520;19.144;2024-02-16T05:25:20;7.50;;;3.63;;
45618;SDS011;31343;47.520;19.144;2024-02-16T05:27:46;11.30;;;7.93;;
45618;SDS011;31343;47.520;19.144;2024-02-16T05:30:15;8.80;;;5.28;;
45618;SDS011;31343;47.520;19.144;2024-02-16T05:32:41;10.68;;;4.78;;
45618;SDS011;31343;47.520;19.144;2024-02-16T05:35:07;8.93;;;4.82;;
45618;SDS011;31343;47.520;19.144;2024-02-16T05:37:43;7.32;;;4.57;;
45618;SDS011;31343;47.520;19.144;2024-02-16T05:40:12;8.00;;;5.00;;
45618;SDS011;31343;47.520;19.144;2024-02-16T05:42:46;7.45;;;4.03;;
45618;SDS011;31343;47.520;19.144;2024-02-16T05:45:13;4.82;;;4.18;;
45618;SDS011;31343;47.520;19.144;2024-02-16T05:47:42;11.68;;;5.15;;
45618;SDS011;31343;47.520;19.144;2024-02-16T05:50:10;7.28;;;4.93;;
45618;SDS011;31343;47.520;19.144;2024-02-16T05:52:37;10.27;;;4.97;;
45618;SDS011;31343;47.520;19.144;2024-02-16T05:55:04;8.10;;;5.80;;
45618;SDS011;31343;47.520;19.144;2024-02-16T05:57:33;9.18;;;5.13;;
45618;SDS011;31343;47.520;19.144;2024-02-16T06:00:00;8.23;;;4.60;;
45618;SDS011;31343;47.520;19.144;2024-02-16T06:02:26;10.00;;;5.80;;
45618;SDS011;31343;47.520;19.144;2024-02-16T06:04:52;9.52;;;4.95;;
45618;SDS011;31343;47.520;19.144;2024-02-16T06:07:19;7.80;;;5.55;;
45618;SDS011;31343;47.520;19.144;2024-02-16T06:09:44;7.88;;;4.88;;
45618;SDS011;31343;47.520;19.144;2024-02-16T06:12:10;9.07;;;6.38;;
45618;SDS011;31343;47.520;19.144;2024-02-16T06:14:37;7.93;;;5.97;;
45618;SDS011;31343;47.520;19.144;2024-02-16T06:17:03;8.88;;;6.43;;
45618;SDS011;31343;47.520;19.144;2024-02-16T06:19:30;11.45;;;5.55;;
45618;SDS011;31343;47.520;19.144;2024-02-16T06:21:55;9.40;;;6.60;;
45618;SDS011;31343;47.520;19.144;2024-02-16T06:24:22;12.95;;;7.95;;
45618;SDS011;31343;47.520;19.144;2024-02-16T06:26:50;8.75;;;6.95;;
45618;SDS011;31343;47.520;19.144;2024-02-16T06:29:19;11.52;;;6.28;;
45618;SDS011;31343;47.520;19.144;2024-02-16T06:31:48;10.27;;;6.45;;
45618;SDS011;31343;47.520;19.144;2024-02-16T06:34:14;9.90;;;7.47;;
45618;SDS011;31343;47.520;19.144;2024-02-16T06:36:40;10.95;;;6.43;;
45618;SDS011;31343;47.520;19.144;2024-02-16T06:39:06;11.98;;;7.68;;
45618;SDS011;31343;47.520;19.144;2024-02-16T06:41:32;12.63;;;7.18;;
45618;SDS011;31343;47.520;19.144;2024-02-16T06:43:58;13.32;;;7.88;;
45618;SDS011;31343;47.520;19.144;2024-02-16T06:46:23;13.00;;;6.95;;
45618;SDS011;31343;47.520;19.144;2024-02-16T06:48:50;10.63;;;7.22;;
45618;SDS011;31343;47.520;19.144;2024-02-16T06:51:17;10.85;;;6.70;;
45618;SDS011;31343;47.520;19.144;2024-02-16T06:53:43;11.57;;;7.35;;
45618;SDS011;31343;47.520;19.144;2024-02-16T06:56:09;12.07;;;7.00;;
45618;SDS011;31343;47.520;19.144;2024-02-16T06:58:35;10.35;;;6.68;;
45618;SDS011;31343;47.520;19.144;2024-02-16T07:01:02;8.75;;;6.30;;
45618;SDS011;31343;47.520;19.144;2024-02-16T07:03:29;11.35;;;7.43;;
45618;SDS011;31343;47.520;19.144;2024-02-16T07:05:54;15.98;;;6.78;;
45618;SDS011;31343;47.520;19.144;2024-02-16T07:08:20;12.75;;;7.45;;
45618;SDS011;31343;47.520;19.144;2024-02-16T07:10:49;15.75;;;7.68;;
45618;SDS011;31343;47.520;19.144;2024-02-16T07:13:16;10.18;;;7.18;;
45618;SDS011;31343;47.520;19.144;2024-02-16T07:15:42;12.68;;;7.95;;
45618;SDS011;31343;47.520;19.144;2024-02-16T07:18:08;11.70;;;7.50;;
45618;SDS011;31343;47.520;19.144;2024-02-16T07:20:35;10.02;;;6.07;;
45618;SDS011;31343;47.520;19.144;2024-02-16T07:23:01;10.93;;;7.22;;
45618;SDS011;31343;47.520;19.144;2024-02-16T07:25:27;10.55;;;6.60;;
45618;SDS011;31343;47.520;19.144;2024-02-16T07:27:53;10.82;;;6.18;;
45618;SDS011;31343;47.520;19.144;2024-02-16T07:30:19;10.70;;;7.15;;
45618;SDS011;31343;47.520;19.144;2024-02-16T07:32:48;10.20;;;5.80;;
45618;SDS011;31343;47.520;19.144;2024-02-16T07:35:15;10.32;;;6.68;;
45618;SDS011;31343;47.520;19.144;2024-02-16T07:37:41;10.52;;;6.70;;
45618;SDS011;31343;47.520;19.144;2024-02-16T07:40:08;8.15;;;5.60;;
45618;SDS011;31343;47.520;19.144;2024-02-16T07:42:38;8.50;;;5.50;;
45618;SDS011;31343;47.520;19.144;2024-02-16T07:45:07;9.68;;;5.57;;
45618;SDS011;31343;47.520;19.144;2024-02-16T07:47:34;8.38;;;5.63;;
45618;SDS011;31343;47.520;19.144;2024-02-16T07:50:00;8.55;;;5.00;;
45618;SDS011;31343;47.520;19.144;2024-02-16T07:52:26;8.73;;;5.13;;
45618;SDS011;31343;47.520;19.144;2024-02-16T07:54:51;6.43;;;3.92;;
45618;SDS011;31343;47.520;19.144;2024-02-16T07:57:17;7.90;;;3.75;;
45618;SDS011;31343;47.520;19.144;2024-02-16T07:59:43;7.30;;;4.35;;
45618;SDS011;31343;47.520;19.144;2024-02-16T08:02:09;7.50;;;3.85;;
45618;SDS011;31343;47.520;19.144;2024-02-16T08:04:35;7.97;;;4.20;;
45618;SDS011;31343;47.520;19.144;2024-02-16T08:07:00;12.35;;;4.38;;
45618;SDS011;31343;47.520;19.144;2024-02-16T08:09:26;5.72;;;3.17;;
45618;SDS011;31343;47.520;19.144;2024-02-16T08:11:52;10.27;;;4.53;;
45618;SDS011;31343;47.520;19.144;2024-02-16T08:14:18;6.10;;;3.33;;
45618;SDS011;31343;47.520;19.144;2024-02-16T08:16:43;7.05;;;4.80;;
45618;SDS011;31343;47.520;19.144;2024-02-16T08:19:09;7.10;;;3.92;;
45618;SDS011;31343;47.520;19.144;2024-02-16T08:21:34;6.57;;;3.60;;
45618;SDS011;31343;47.520;19.144;2024-02-16T08:24:00;7.15;;;4.90;;
45618;SDS011;31343;47.520;19.144;2024-02-16T08:26:26;10.15;;;5.28;;
45618;SDS011;31343;47.520;19.144;2024-02-16T08:28:51;6.70;;;4.25;;
45618;SDS011;31343;47.520;19.144;2024-02-16T08:31:18;6.80;;;4.55;;
45618;SDS011;31343;47.520;19.144;2024-02-16T08:33:44;4.88;;;3.50;;
45618;SDS011;31343;47.520;19.144;2024-02-16T08:36:11;8.27;;;3.17;;
45618;SDS011;31343;47.520;19.144;2024-02-16T08:38:37;6.35;;;3.53;;
45618;SDS011;31343;47.520;19.144;2024-02-16T08:41:03;5.68;;;3.45;;
45618;SDS011;31343;47.520;19.144;2024-02-16T08:43:28;6.88;;;3.90;;
45618;SDS011;31343;47.520;19.144;2024-02-16T08:45:54;5.93;;;3.20;;
45618;SDS011;31343;47.520;19.144;2024-02-16T08:48:20;8.10;;;4.03;;
45618;SDS011;31343;47.520;19.144;2024-02-16T08:50:45;5.07;;;2.67;;
45618;SDS011;31343;47.520;19.144;2024-02-16T08:53:12;6.82;;;3.20;;
45618;SDS011;31343;47.520;19.144;2024-02-16T08:55:39;5.13;;;2.72;;
45618;SDS011;31343;47.520;19.144;2024-02-16T08:58:07;4.55;;;3.13;;
45618;SDS011;31343;47.520;19.144;2024-02-16T09:00:33;3.95;;;2.30;;
45618;SDS011;31343;47.520;19.144;2024-02-16T09:02:59;2.70;;;1.95;;
45618;SDS011;31343;47.520;19.144;2024-02-16T09:05:27;4.70;;;2.97;;
45618;SDS011;31343;47.520;19.144;2024-02-16T09:07:53;5.75;;;3.30;;
45618;SDS011;31343;47.520;19.144;2024-02-16T09:10:19;3.83;;;1.98;;
45618;SDS011;31343;47.520;19.144;2024-02-16T09:12:45;5.32;;;2.72;;
45618;SDS011;31343;47.520;19.144;2024-02-16T09:15:11;4.57;;;2.58;;
45618;SDS011;31343;47.520;19.144;2024-02-16T09:17:37;4.47;;;2.42;;
45618;SDS011;31343;47.520;19.144;2024-02-16T09:20:02;3.97;;;2.20;;
45618;SDS011;31343;47.520;19.144;2024-02-16T09:22:29;3.85;;;2.10;;
45618;SDS011;31343;47.520;19.144;2024-02-16T09:24:55;4.18;;;2.35;;
45618;SDS011;31343;47.520;19.144;2024-02-16T09:27:24;2.22;;;1.65;;
45618;SDS011;31343;47.520;19.144;2024-02-16T09:29:50;8.43;;;2.30;;
45618;SDS011;31343;47.520;19.144;2024-02-16T09:32:16;2.90;;;2.08;;
45618;SDS011;31343;47.520;19.144;2024-02-16T09:34:41;2.65;;;2.00;;
45618;SDS011;31343;47.520;19.144;2024-02-16T09:37:07;3.40;;;2.25;;
45618;SDS011;31343;47.520;19.144;2024-02-16T09:39:33;6.57;;;3.17;;
45618;SDS011;31343;47.520;19.144;2024-02-16T09:41:59;5.07;;;2.65;;
45618;SDS011;31343;47.520;19.144;2024-02-16T09:44:25;4.60;;;3.03;;
45618;SDS011;31343;47.520;19.144;2024-02-16T09:46:53;4.93;;;2.35;;
45618;SDS011;31343;47.520;19.144;2024-02-16T09:49:19;5.07;;;3.40;;
45618;SDS011;31343;47.520;19.144;2024-02-16T09:51:46;4.15;;;3.63;;
45618;SDS011;31343;47.520;19.144;2024-02-16T09:54:12;6.40;;;3.42;;
45618;SDS011;31343;47.520;19.144;2024-02-16T09:56:37;7.32;;;3.05;;
45618;SDS011;31343;47.520;19.144;2024-02-16T09:59:03;6.43;;;3.42;;
45618;SDS011;31343;47.520;19.144;2024-02-16T10:01:29;5.72;;;3.42;;
45618;SDS011;31343;47.520;19.144;2024-02-16T10:03:59;4.60;;;3.17;;
45618;SDS011;31343;47.520;19.144;2024-02-16T10:06:31;5.20;;;3.25;;
45618;SDS011;31343;47.520;19.144;2024-02-16T10:08:57;4.40;;;2.83;;
45618;SDS011;31343;47.520;19.144;2024-02-16T10:11:24;5.30;;;2.83;;
45618;SDS011;31343;47.520;19.144;2024-02-16T10:16:21;5.70;;;3.30;;
45618;SDS011;31343;47.520;19.144;2024-02-16T10:18:47;2.92;;;1.73;;
45618;SDS011;31343;47.520;19.144;2024-02-16T10:21:12;5.47;;;2.70;;
45618;SDS011;31343;47.520;19.144;2024-02-16T10:23:39;4.47;;;1.92;;
45618;SDS011;31343;47.520;19.144;2024-02-16T10:26:05;5.53;;;3.05;;
45618;SDS011;31343;47.520;19.144;2024-02-16T10:28:30;4.38;;;1.77;;
45618;SDS011;31343;47.520;19.144;2024-02-16T10:30:57;5.57;;;2.65;;
45618;SDS011;31343;47.520;19.144;2024-02-16T10:33:26;7.47;;;2.45;;
45618;SDS011;31343;47.520;19.144;2024-02-16T10:35:53;4.40;;;1.95;;
45618;SDS011;31343;47.520;19.144;2024-02-16T10:38:22;5.72;;;3.33;;
45618;SDS011;31343;47.520;19.144;2024-02-16T10:40:48;3.88;;;2.85;;
45618;SDS011;31343;47.520;19.144;2024-02-16T10:43:15;5.72;;;2.55;;
45618;SDS011;31343;47.520;19.144;2024-02-16T10:45:43;5.40;;;2.80;;
45618;SDS011;31343;47.520;19.144;2024-02-16T10:48:10;4.43;;;2.28;;
45618;SDS011;31343;47.520;19.144;2024-02-16T10:50:36;4.00;;;2.15;;
45618;SDS011;31343;47.520;19.144;2024-02-16T10:53:13;2.85;;;1.80;;
45618;SDS011;31343;47.520;19.144;2024-02-16T10:55:41;3.78;;;2.20;;
45618;SDS011;31343;47.520;19.144;2024-02-16T10:58:09;3.90;;;2.42;;
45618;SDS011;31343;47.520;19.144;2024-02-16T11:00:47;6.18;;;3.10;;
45618;SDS011;31343;47.520;19.144;2024-02-16T11:03:15;3.17;;;2.28;;
45618;SDS011;31343;47.520;19.144;2024-02-16T11:05:42;5.50;;;2.17;;
45618;SDS011;31343;47.520;19.144;2024-02-16T11:08:14;5.25;;;2.67;;
45618;SDS011;31343;47.520;19.144;2024-02-16T11:10:41;6.57;;;3.60;;
45618;SDS011;31343;47.520;19.144;2024-02-16T11:13:21;4.15;;;2.65;;
45618;SDS011;31343;47.520;19.144;2024-02-16T11:15:48;4.05;;;3.05;;
45618;SDS011;31343;47.520;19.144;2024-02-16T11:18:23;4.47;;;2.08;;
45618;SDS011;31343;47.520;19.144;2024-02-16T11:20:49;4.88;;;2.80;;
45618;SDS011;31343;47.520;19.144;2024-02-16T11:23:15;4.50;;;2.70;;
45618;SDS011;31343;47.520;19.144;2024-02-16T11:25:49;3.97;;;3.05;;
45618;SDS011;31343;47.520;19.144;2024-02-16T11:28:16;5.10;;;2.72;;
45618;SDS011;31343;47.520;19.144;2024-02-16T11:30:43;5.90;;;3.40;;
45618;SDS011;31343;47.520;19.144;2024-02-16T11:33:12;4.10;;;2.15;;
45618;SDS011;31343;47.520;19.144;2024-02-16T11:35:37;3.97;;;2.78;;
45618;SDS011;31343;47.520;19.144;2024-02-16T11:38:03;4.22;;;2.40;;
45618;SDS011;31343;47.520;19.144;2024-02-16T11:40:30;4.55;;;2.88;;
45618;SDS011;31343;47.520;19.144;2024-02-16T11:43:02;2.92;;;2.38;;
45618;SDS011;31343;47.520;19.144;2024-02-16T11:45:27;4.53;;;3.45;;
45618;SDS011;31343;47.520;19.144;2024-02-16T11:48:03;5.93;;;2.30;;
45618;SDS011;31343;47.520;19.144;2024-02-16T11:50:30;5.55;;;3.03;;
45618;SDS011;31343;47.520;19.144;2024-02-16T11:52:56;5.10;;;3.13;;
45618;SDS011;31343;47.520;19.144;2024-02-16T11:55:22;4.20;;;2.88;;
45618;SDS011;31343;47.520;19.144;2024-02-16T11:57:47;4.35;;;2.75;;
45618;SDS011;31343;47.520;19.144;2024-02-16T12:00:15;5.32;;;2.90;;
45618;SDS011;31343;47.520;19.144;2024-02-16T12:02:41;4.32;;;3.15;;
45618;SDS011;31343;47.520;19.144;2024-02-16T12:05:08;7.25;;;2.50;;
45618;SDS011;31343;47.520;19.144;2024-02-16T12:07:36;7.63;;;3.35;;
45618;SDS011;31343;47.520;19.144;2024-02-16T12:10:05;4.07;;;3.05;;
45618;SDS011;31343;47.520;19.144;2024-02-16T12:12:32;4.07;;;2.58;;
45618;SDS011;31343;47.520;19.144;2024-02-16T12:14:58;20.30;;;3.40;;
45618;SDS011;31343;47.520;19.144;2024-02-16T12:17:24;3.45;;;2.03;;
45618;SDS011;31343;47.520;19.144;2024-02-16T12:19:51;6.78;;;3.55;;
45618;SDS011;31343;47.520;19.144;2024-02-16T12:22:17;4.63;;;2.90;;
45618;SDS011;31343;47.520;19.144;2024-02-16T12:24:47;4.63;;;2.45;;
45618;SDS011;31343;47.520;19.144;2024-02-16T12:27:15;4.53;;;2.83;;
45618;SDS011;31343;47.520;19.144;2024-02-16T12:29:40;4.95;;;3.22;;
45618;SDS011;31343;47.520;19.144;2024-02-16T12:32:06;4.60;;;2.53;;
45618;SDS011;31343;47.520;19.144;2024-02-16T12:34:34;5.47;;;2.30;;
45618;SDS011;31343;47.520;19.144;2024-02-16T12:37:03;3.25;;;1.92;;
45618;SDS011;31343;47.520;19.144;2024-02-16T12:39:33;3.58;;;2.40;;
45618;SDS011;31343;47.520;19.144;2024-02-16T12:42:01;4.97;;;2.08;;
45618;SDS011;31343;47.520;19.144;2024-02-16T12:44:27;4.00;;;2.72;;
45618;SDS011;31343;47.520;19.144;2024-02-16T12:46:53;4.45;;;2.55;;
45618;SDS011;31343;47.520;19.144;2024-02-16T12:49:19;4.60;;;2.58;;
45618;SDS011;31343;47.520;19.144;2024-02-16T12:51:47;2.17;;;1.83;;
45618;SDS011;31343;47.520;19.144;2024-02-16T12:54:14;3.30;;;1.73;;
45618;SDS011;31343;47.520;19.144;2024-02-16T12:56:43;3.92;;;1.65;;
45618;SDS011;31343;47.520;19.144;2024-02-16T12:59:10;5.13;;;3.22;;
45618;SDS011;31343;47.520;19.144;2024-02-16T13:01:36;2.75;;;1.65;;
45618;SDS011;31343;47.520;19.144;2024-02-16T13:04:02;3.55;;;2.40;;
45618;SDS011;31343;47.520;19.144;2024-02-16T13:06:27;3.38;;;1.73;;
45618;SDS011;31343;47.520;19.144;2024-02-16T13:08:53;4.95;;;2.45;;
45618;SDS011;31343;47.520;19.144;2024-02-16T13:11:19;4.03;;;1.83;;
45618;SDS011;31343;47.520;19.144;2024-02-16T13:13:45;3.47;;;2.45;;
45618;SDS011;31343;47.520;19.144;2024-02-16T13:16:11;4.22;;;2.53;;
45618;SDS011;31343;47.520;19.144;2024-02-16T13:18:37;3.92;;;1.85;;
45618;SDS011;31343;47.520;19.144;2024-02-16T13:21:02;5.78;;;1.52;;
45618;SDS011;31343;47.520;19.144;2024-02-16T13:23:28;3.78;;;2.13;;
45618;SDS011;31343;47.520;19.144;2024-02-16T13:25:56;2.50;;;1.65;;
45618;SDS011;31343;47.520;19.144;2024-02-16T13:28:21;3.30;;;1.75;;
45618;SDS011;31343;47.520;19.144;2024-02-16T13:30:47;4.53;;;1.70;;
45618;SDS011;31343;47.520;19.144;2024-02-16T13:33:12;3.22;;;2.05;;
45618;SDS011;31343;47.520;19.144;2024-02-16T13:35:38;2.70;;;1.42;;
45618;SDS011;31343;47.520;19.144;2024-02-16T13:38:04;3.97;;;2.28;;
45618;SDS011;31343;47.520;19.144;2024-02-16T13:40:30;3.60;;;1.88;;
45618;SDS011;31343;47.520;19.144;2024-02-16T13:42:55;3.80;;;1.88;;
45618;SDS011;31343;47.520;19.144;2024-02-16T13:45:26;3.95;;;2.60;;
45618;SDS011;31343;47.520;19.144;2024-02-16T13:48:12;5.60;;;2.20;;
45618;SDS011;31343;47.520;19.144;2024-02-16T13:50:38;4.97;;;2.40;;
45618;SDS011;31343;47.520;19.144;2024-02-16T13:53:04;2.90;;;2.00;;
45618;SDS011;31343;47.520;19.144;2024-02-16T13:55:29;2.30;;;1.63;;
45618;SDS011;31343;47.520;19.144;2024-02-16T13:57:55;2.85;;;1.63;;
45618;SDS011;31343;47.520;19.144;2024-02-16T14:00:20;4.38;;;2.28;;
45618;SDS011;31343;47.520;19.144;2024-02-16T14:02:46;4.05;;;1.98;;
45618;SDS011;31343;47.520;19.144;2024-02-16T14:05:12;3.13;;;1.95;;
45618;SDS011;31343;47.520;19.144;2024-02-16T14:07:38;3.60;;;2.10;;
45618;SDS011;31343;47.520;19.144;2024-02-16T14:10:03;2.88;;;1.75;;
45618;SDS011;31343;47.520;19.144;2024-02-16T14:12:29;3.40;;;1.98;;
45618;SDS011;31343;47.520;19.144;2024-02-16T14:14:55;3.03;;;1.90;;
45618;SDS011;31343;47.520;19.144;2024-02-16T14:17:21;3.20;;;2.28;;
45618;SDS011;31343;47.520;19.144;2024-02-16T14:19:46;3.42;;;2.63;;
45618;SDS011;31343;47.520;19.144;2024-02-16T14:22:12;3.55;;;1.73;;
45618;SDS011;31343;47.520;19.144;2024-02-16T14:24:38;2.58;;;1.77;;
45618;SDS011;31343;47.520;19.144;2024-02-16T14:27:03;4.15;;;2.05;;
45618;SDS011;31343;47.520;19.144;2024-02-16T14:29:29;4.15;;;1.98;;